createdAt,value
2023-01-23T00:01:26.763Z,1.35
2023-01-23T00:03:54.510Z,1.40
2023-01-23T00:06:21.791Z,1.33
2023-01-23T00:08:48.937Z,1.30
2023-01-23T00:11:18.390Z,1.50
2023-01-23T00:13:45.579Z,1.20
2023-01-23T00:16:14.097Z,1.27
2023-01-23T00:18:41.706Z,1.50
2023-01-23T00:21:10.040Z,1.42
2023-01-23T00:23:37.540Z,1.30
2023-01-23T00:26:09.538Z,1.48
2023-01-23T00:28:36.740Z,1.55
2023-01-23T00:31:08.227Z,1.40
2023-01-23T00:33:35.595Z,1.48
2023-01-23T00:36:02.921Z,1.67
2023-01-23T00:38:30.097Z,1.60
2023-01-23T00:40:57.356Z,1.50
2023-01-23T00:43:24.883Z,1.60
2023-01-23T00:45:52.098Z,1.33
2023-01-23T00:48:19.307Z,1.60
2023-01-23T00:50:46.532Z,1.30
2023-01-23T00:53:13.879Z,1.40
2023-01-23T00:55:42.991Z,1.25
2023-01-23T00:58:10.371Z,1.33
2023-01-23T01:00:38.284Z,1.20
2023-01-23T01:03:06.003Z,1.30
2023-01-23T01:05:33.791Z,1.42
2023-01-23T01:08:01.058Z,1.40
2023-01-23T01:10:29.543Z,1.35
2023-01-23T01:12:57.347Z,1.33
2023-01-23T01:15:24.535Z,1.20
2023-01-23T01:17:54.117Z,1.60
2023-01-23T01:20:23.694Z,1.25
2023-01-23T01:22:51.277Z,1.40
2023-01-23T01:25:18.841Z,1.55
2023-01-23T01:27:46.415Z,1.20
2023-01-23T01:30:13.844Z,1.25
2023-01-23T01:32:41.925Z,1.10
2023-01-23T01:35:09.850Z,1.40
2023-01-23T01:37:38.055Z,1.63
2023-01-23T01:40:06.503Z,1.58
2023-01-23T01:42:39.234Z,1.40
2023-01-23T01:45:06.693Z,1.17
2023-01-23T01:47:34.889Z,1.27
2023-01-23T01:50:03.194Z,1.27
2023-01-23T01:52:30.377Z,1.40
2023-01-23T01:55:03.211Z,1.20
2023-01-23T01:57:32.555Z,1.33
2023-01-23T02:00:02.601Z,1.33
2023-01-23T02:02:35.599Z,1.40
2023-01-23T02:05:06.492Z,1.50
2023-01-23T02:07:33.845Z,1.52
2023-01-23T02:10:02.497Z,1.52
2023-01-23T02:12:29.792Z,1.42
2023-01-23T02:14:57.099Z,1.30
2023-01-23T02:17:24.426Z,1.40
2023-01-23T02:20:06.591Z,1.40
2023-01-23T02:22:55.777Z,1.48
2023-01-23T02:25:27.279Z,1.50
2023-01-23T02:27:54.570Z,1.40
2023-01-23T02:30:22.255Z,1.77
2023-01-23T02:32:49.513Z,1.52
2023-01-23T02:35:21.499Z,1.20
2023-01-23T02:37:49.817Z,1.80
2023-01-23T02:40:17.153Z,1.15
2023-01-23T02:42:46.230Z,1.70
2023-01-23T02:47:41.737Z,1.40
2023-01-23T02:50:09.144Z,1.40
2023-01-23T02:52:36.324Z,1.45
2023-01-23T02:55:03.449Z,1.40
2023-01-23T02:57:30.614Z,1.40
2023-01-23T03:00:16.357Z,1.40
2023-01-23T03:02:44.322Z,1.38
2023-01-23T03:05:11.495Z,1.23
2023-01-23T03:07:38.679Z,1.15
2023-01-23T03:10:07.542Z,1.50
2023-01-23T03:12:34.800Z,1.30
2023-01-23T03:15:02.615Z,1.73
2023-01-23T03:17:30.345Z,1.50
2023-01-23T03:19:57.810Z,1.25
2023-01-23T03:22:25.176Z,1.27
2023-01-23T03:24:52.280Z,1.27
2023-01-23T03:27:19.458Z,1.42
2023-01-23T03:30:05.515Z,1.25
2023-01-23T03:32:32.695Z,1.40
2023-01-23T03:35:00.110Z,1.38
2023-01-23T03:37:27.294Z,1.20
2023-01-23T03:40:13.036Z,1.33
2023-01-23T03:42:40.185Z,1.60
2023-01-23T03:45:07.969Z,1.33
2023-01-23T03:47:35.359Z,1.40
2023-01-23T03:50:02.505Z,1.27
2023-01-23T03:52:29.606Z,1.17
2023-01-23T03:54:56.759Z,1.15
2023-01-23T03:57:23.906Z,1.10
2023-01-23T03:59:51.022Z,1.10
2023-01-23T04:02:18.196Z,1.50
2023-01-23T04:04:45.310Z,1.40
2023-01-23T04:07:12.478Z,1.20
2023-01-23T04:09:39.706Z,1.40
2023-01-23T04:12:06.916Z,1.38
2023-01-23T04:14:38.810Z,1.30
2023-01-23T04:17:07.081Z,1.65
2023-01-23T04:19:34.483Z,1.58
2023-01-23T04:22:01.811Z,1.30
2023-01-23T04:24:28.912Z,1.35
2023-01-23T04:26:56.134Z,1.30
2023-01-23T04:29:23.235Z,1.40
2023-01-23T04:31:50.628Z,1.60
2023-01-23T04:34:17.799Z,1.52
2023-01-23T04:36:44.943Z,1.20
2023-01-23T04:39:12.098Z,1.50
2023-01-23T04:41:39.225Z,1.50
2023-01-23T04:44:21.448Z,1.42
2023-01-23T04:46:50.012Z,1.40
2023-01-23T04:49:18.800Z,1.48
2023-01-23T04:51:48.019Z,1.40
2023-01-23T04:54:15.474Z,2.35
2023-01-23T04:56:43.016Z,1.42
2023-01-23T04:59:10.695Z,1.67
2023-01-23T05:01:38.096Z,1.67
2023-01-23T05:04:05.577Z,1.40
2023-01-23T05:06:33.145Z,1.80
2023-01-23T05:09:00.339Z,1.52
2023-01-23T05:11:27.562Z,4.93
2023-01-23T05:13:54.723Z,1.80
2023-01-23T05:16:22.060Z,1.92
2023-01-23T05:18:49.182Z,1.63
2023-01-23T05:21:16.380Z,1.80
2023-01-23T05:23:43.512Z,1.77
2023-01-23T05:26:10.614Z,1.55
2023-01-23T05:28:37.728Z,1.50
2023-01-23T05:31:05.003Z,1.48
2023-01-23T05:33:32.138Z,1.67
2023-01-23T05:36:00.453Z,1.90
2023-01-23T05:38:27.677Z,1.63
2023-01-23T05:40:54.872Z,1.35
2023-01-23T05:43:22.062Z,1.73
2023-01-23T05:45:49.316Z,1.63
2023-01-23T05:48:16.507Z,2.42
2023-01-23T05:50:43.669Z,1.38
2023-01-23T05:53:10.810Z,1.20
2023-01-23T05:55:40.935Z,1.40
2023-01-23T05:58:08.100Z,1.77
2023-01-23T06:00:35.493Z,1.55
2023-01-23T06:03:03.224Z,1.30
2023-01-23T06:05:30.470Z,1.27
2023-01-23T06:07:57.741Z,1.90
2023-01-23T06:10:25.049Z,1.60
2023-01-23T06:12:53.157Z,1.60
2023-01-23T06:15:20.613Z,1.50
2023-01-23T06:17:47.838Z,1.65
2023-01-23T06:20:15.012Z,1.40
2023-01-23T06:22:42.160Z,1.50
2023-01-23T06:25:09.546Z,1.65
2023-01-23T06:27:36.756Z,1.40
2023-01-23T06:30:04.124Z,1.40
2023-01-23T06:32:31.243Z,1.55
2023-01-23T06:34:58.416Z,1.40
2023-01-23T06:37:27.904Z,1.40
2023-01-23T06:39:55.685Z,1.48
2023-01-23T06:42:22.948Z,1.27
2023-01-23T06:44:50.030Z,1.52
2023-01-23T06:47:17.885Z,1.40
2023-01-23T06:49:45.112Z,1.48
2023-01-23T06:52:12.251Z,1.98
2023-01-23T06:54:39.439Z,1.27
2023-01-23T06:57:06.542Z,1.48
2023-01-23T06:59:33.714Z,1.50
2023-01-23T07:02:00.992Z,1.48
2023-01-23T07:04:28.166Z,1.30
2023-01-23T07:06:55.475Z,1.55
2023-01-23T07:09:22.677Z,1.50
2023-01-23T07:11:49.781Z,1.30
2023-01-23T07:14:16.936Z,1.45
2023-01-23T07:16:44.089Z,1.42
2023-01-23T07:19:11.325Z,1.65
2023-01-23T07:21:38.550Z,1.60
2023-01-23T07:24:06.025Z,1.75
2023-01-23T07:26:33.466Z,1.20
2023-01-23T07:29:01.895Z,1.50
2023-01-23T07:31:29.938Z,1.33
2023-01-23T07:33:57.141Z,1.52
2023-01-23T07:36:24.283Z,1.50
2023-01-23T07:38:51.525Z,1.75
2023-01-23T07:41:18.718Z,1.65
2023-01-23T07:43:45.977Z,1.50
2023-01-23T07:46:13.157Z,1.90
2023-01-23T07:48:40.327Z,1.48
2023-01-23T07:51:07.646Z,1.60
2023-01-23T07:53:34.962Z,1.80
2023-01-23T07:56:05.016Z,1.25
2023-01-23T07:58:32.258Z,1.63
2023-01-23T08:00:59.420Z,1.60
2023-01-23T08:03:29.095Z,1.52
2023-01-23T08:05:56.312Z,1.58
2023-01-23T08:08:23.483Z,1.60
2023-01-23T08:10:50.811Z,1.67
2023-01-23T08:13:18.035Z,1.33
2023-01-23T08:15:46.515Z,1.60
2023-01-23T08:18:13.711Z,1.58
2023-01-23T08:20:40.823Z,1.55
2023-01-23T08:23:08.000Z,1.48
2023-01-23T08:25:35.454Z,1.45
2023-01-23T08:28:02.987Z,1.50
2023-01-23T08:30:30.191Z,1.70
2023-01-23T08:32:57.555Z,1.27
2023-01-23T08:35:24.712Z,1.70
2023-01-23T08:37:52.075Z,2.00
2023-01-23T08:40:19.916Z,1.40
2023-01-23T08:42:47.510Z,1.40
2023-01-23T08:45:14.693Z,1.60
2023-01-23T08:47:42.066Z,1.80
2023-01-23T08:50:09.660Z,1.60
2023-01-23T08:52:36.784Z,1.30
2023-01-23T08:55:04.045Z,1.42
2023-01-23T08:57:31.475Z,1.48
2023-01-23T08:59:58.732Z,1.40
2023-01-23T09:02:25.915Z,1.50
2023-01-23T09:04:53.160Z,1.35
2023-01-23T09:07:20.341Z,1.40
2023-01-23T09:09:47.784Z,1.50
2023-01-23T09:12:14.927Z,1.52
2023-01-23T09:14:42.122Z,1.67
2023-01-23T09:17:09.546Z,1.60
2023-01-23T09:19:36.884Z,1.45
2023-01-23T09:22:04.479Z,1.38
2023-01-23T09:24:31.677Z,1.80
2023-01-23T09:26:58.920Z,1.48
2023-01-23T09:29:26.205Z,1.55
2023-01-23T09:31:53.448Z,1.73
2023-01-23T09:34:20.662Z,1.30
2023-01-23T09:36:47.855Z,1.38
2023-01-23T09:39:15.136Z,1.75
2023-01-23T09:41:44.470Z,1.58
2023-01-23T09:44:11.687Z,1.65
2023-01-23T09:46:42.065Z,1.70
2023-01-23T09:49:18.075Z,1.40
2023-01-23T09:52:00.132Z,1.45
2023-01-23T09:54:44.320Z,1.60
2023-01-23T09:57:16.378Z,1.80
2023-01-23T09:59:58.742Z,1.27
2023-01-23T10:02:28.259Z,1.70
2023-01-23T10:04:58.000Z,1.48
2023-01-23T10:07:43.681Z,1.42
2023-01-23T10:10:23.307Z,1.40
2023-01-23T10:13:05.770Z,1.75
2023-01-23T10:15:56.122Z,1.63
2023-01-23T10:18:23.179Z,1.67
2023-01-23T10:21:13.191Z,1.67
2023-01-23T10:23:49.279Z,1.90
2023-01-23T10:26:22.500Z,1.45
2023-01-23T10:28:52.272Z,1.63
2023-01-23T10:31:19.515Z,1.70
2023-01-23T10:33:50.068Z,1.58
2023-01-23T10:36:47.607Z,1.80
2023-01-23T10:39:23.266Z,1.60
2023-01-23T10:41:57.477Z,1.40
2023-01-23T10:44:24.942Z,1.60
2023-01-23T10:46:57.090Z,1.40
2023-01-23T10:49:32.427Z,1.85
2023-01-23T10:51:59.673Z,1.60
2023-01-23T10:54:32.836Z,1.42
2023-01-23T10:57:26.909Z,1.42
2023-01-23T11:00:00.531Z,1.42
2023-01-23T11:02:37.581Z,1.58
2023-01-23T11:05:24.834Z,1.90
2023-01-23T11:07:56.098Z,1.40
2023-01-23T11:10:23.788Z,1.38
2023-01-23T11:12:52.304Z,1.40
2023-01-23T11:15:22.669Z,1.58
2023-01-23T11:17:51.105Z,1.83
2023-01-23T11:20:37.178Z,1.60
2023-01-23T11:23:13.243Z,1.75
2023-01-23T11:25:42.177Z,1.60
2023-01-23T11:30:39.596Z,1.98
2023-01-23T11:33:27.062Z,1.70
2023-01-23T11:36:23.113Z,1.58
2023-01-23T11:38:56.187Z,1.70
2023-01-23T11:41:26.807Z,1.30
2023-01-23T11:43:54.077Z,1.90
2023-01-23T11:46:24.294Z,1.80
2023-01-23T11:48:51.552Z,1.50
2023-01-23T11:51:27.154Z,1.95
2023-01-23T11:54:01.694Z,1.60
2023-01-23T11:56:31.912Z,1.67
2023-01-23T11:59:01.867Z,1.50
2023-01-23T12:01:31.929Z,1.50
2023-01-23T12:04:24.181Z,1.77
2023-01-23T12:07:09.571Z,1.60
2023-01-23T12:09:45.088Z,1.50
2023-01-23T12:12:30.364Z,1.60
2023-01-23T12:15:03.496Z,1.40
2023-01-23T12:17:45.174Z,1.88
2023-01-23T12:20:31.126Z,1.67
2023-01-23T12:23:19.514Z,1.80
2023-01-23T12:25:52.007Z,1.65
2023-01-23T12:28:27.509Z,1.48
2023-01-23T12:31:05.729Z,1.60
2023-01-23T12:33:33.039Z,1.65
2023-01-23T12:36:19.202Z,1.80
2023-01-23T12:39:09.848Z,1.70
2023-01-23T12:41:44.259Z,1.60
2023-01-23T12:44:28.136Z,1.50
2023-01-23T12:46:55.343Z,1.35
2023-01-23T12:49:26.722Z,1.58
2023-01-23T12:51:58.379Z,1.55
2023-01-23T12:54:30.749Z,1.50
2023-01-23T12:56:58.621Z,1.73
2023-01-23T12:59:27.826Z,1.80
2023-01-23T13:02:02.011Z,1.70
2023-01-23T13:04:37.931Z,1.42
2023-01-23T13:07:07.798Z,1.45
2023-01-23T13:09:34.961Z,1.38
2023-01-23T13:12:21.939Z,1.50
2023-01-23T13:15:14.255Z,1.67
2023-01-23T13:17:49.042Z,1.42
2023-01-23T13:20:48.886Z,1.70
2023-01-23T13:23:23.503Z,1.48
2023-01-23T13:25:51.249Z,1.13
2023-01-23T13:28:45.237Z,1.67
2023-01-23T13:31:32.174Z,1.38
2023-01-23T13:34:14.511Z,1.58
2023-01-23T13:36:43.305Z,1.60
2023-01-23T13:39:29.608Z,1.40
2023-01-23T13:42:23.083Z,1.48
2023-01-23T13:45:09.047Z,1.60
2023-01-23T14:21:23.702Z,1.50
2023-01-23T14:23:52.257Z,1.52
2023-01-23T14:26:20.990Z,1.45
2023-01-23T14:28:51.657Z,1.27
2023-01-23T14:31:23.416Z,1.45
2023-01-23T14:33:52.454Z,1.30
2023-01-23T14:38:47.988Z,1.40
2023-01-23T14:41:15.998Z,1.70
2023-01-23T14:43:44.516Z,1.20
2023-01-23T14:46:17.909Z,2.05
2023-01-23T14:48:46.504Z,1.20
2023-01-23T14:51:22.791Z,1.35
2023-01-23T14:53:57.306Z,1.50
2023-01-23T14:56:42.436Z,2.42
2023-01-23T14:59:17.463Z,1.42
2023-01-23T15:01:53.673Z,1.60
2023-01-23T15:04:22.229Z,1.60
2023-01-23T15:06:58.182Z,1.30
2023-01-23T15:09:30.901Z,1.92
2023-01-23T15:12:05.095Z,1.30
2023-01-23T15:14:37.304Z,1.67
2023-01-23T15:17:06.366Z,1.65
2023-01-23T15:19:37.245Z,2.00
2023-01-23T15:22:26.495Z,1.40
2023-01-23T15:24:53.974Z,1.60
2023-01-23T15:27:31.708Z,1.70
2023-01-23T15:30:19.139Z,1.50
2023-01-23T15:35:17.686Z,1.42
2023-01-23T15:37:48.652Z,1.73
2023-01-23T15:40:19.932Z,1.40
2023-01-23T15:43:08.634Z,1.67
2023-01-23T15:45:35.823Z,1.70
2023-01-23T15:48:03.109Z,1.48
2023-01-23T15:50:30.341Z,1.50
2023-01-23T15:52:57.642Z,1.73
2023-01-23T15:55:26.487Z,2.05
2023-01-23T16:00:27.196Z,1.50
2023-01-23T16:02:57.025Z,1.50
2023-01-23T16:05:32.259Z,1.70
2023-01-23T16:08:03.325Z,1.73
2023-01-23T16:10:40.335Z,1.75
2023-01-23T16:13:08.160Z,1.50
2023-01-23T16:15:37.157Z,1.90
2023-01-23T16:18:04.664Z,1.90
2023-01-23T16:20:34.690Z,1.50
2023-01-23T16:23:14.081Z,1.45
2023-01-23T16:25:46.267Z,1.75
2023-01-23T16:28:14.054Z,1.90
2023-01-23T16:30:41.267Z,1.90
2023-01-23T16:33:08.810Z,1.83
2023-01-23T16:35:36.114Z,1.50
2023-01-23T16:38:03.422Z,1.67
2023-01-23T16:40:30.913Z,2.10
2023-01-23T16:42:59.840Z,1.88
2023-01-23T16:45:28.733Z,1.98
2023-01-23T16:47:55.864Z,2.25
2023-01-23T16:50:41.865Z,1.95
2023-01-23T16:53:11.879Z,2.65
2023-01-23T16:55:39.924Z,1.92
2023-01-23T16:58:07.720Z,2.13
2023-01-23T17:00:35.641Z,2.30
2023-01-23T17:03:04.287Z,2.30
2023-01-23T17:05:31.409Z,2.20
2023-01-23T17:07:58.559Z,3.38
2023-01-23T17:10:34.807Z,2.38
2023-01-23T17:13:10.584Z,2.63
2023-01-23T17:15:37.831Z,2.35
2023-01-23T17:18:05.094Z,2.10
2023-01-23T17:20:32.230Z,2.33
2023-01-23T17:22:59.386Z,2.20
2023-01-23T17:25:27.342Z,2.15
2023-01-23T17:28:11.565Z,2.70
2023-01-23T17:30:40.322Z,2.00
2023-01-23T17:33:14.470Z,2.50
2023-01-23T17:35:46.159Z,2.72
2023-01-23T17:38:36.353Z,2.33
2023-01-23T17:41:07.200Z,2.53
2023-01-23T17:43:34.536Z,2.40
2023-01-23T17:46:01.761Z,2.22
2023-01-23T17:48:31.302Z,2.50
2023-01-23T17:50:59.046Z,2.47
2023-01-23T17:53:28.051Z,2.63
2023-01-23T17:58:22.528Z,2.25
2023-01-23T18:00:51.363Z,2.60
2023-01-23T18:03:21.920Z,2.38
2023-01-23T18:05:49.127Z,2.45
2023-01-23T18:08:18.341Z,2.28
2023-01-23T18:10:46.873Z,2.35
2023-01-23T18:13:17.289Z,2.40
2023-01-23T18:16:06.269Z,2.63
2023-01-23T18:18:34.432Z,2.50
2023-01-23T18:21:02.783Z,2.40
2023-01-23T18:23:37.187Z,2.63
2023-01-23T18:26:23.308Z,3.00
2023-01-23T18:28:57.773Z,2.80
2023-01-23T18:31:45.385Z,2.65
2023-01-23T18:34:15.610Z,3.30
2023-01-23T18:36:42.704Z,2.90
2023-01-23T18:39:12.924Z,2.80
2023-01-23T18:41:44.983Z,2.80
2023-01-23T18:44:17.413Z,2.90
2023-01-23T18:46:44.638Z,2.70
2023-01-23T18:49:14.931Z,2.85
2023-01-23T18:51:50.345Z,2.95
2023-01-23T18:54:23.618Z,2.95
2023-01-23T18:56:56.548Z,2.60
2023-01-23T18:59:27.422Z,2.70
2023-01-23T19:01:56.094Z,3.33
2023-01-23T19:04:38.791Z,2.80
2023-01-23T19:07:16.138Z,2.92
2023-01-23T19:09:46.482Z,3.65
2023-01-23T19:12:25.665Z,2.80
2023-01-23T19:15:05.880Z,3.08
2023-01-23T19:17:39.838Z,3.00
2023-01-23T19:20:13.506Z,2.55
2023-01-23T19:22:44.971Z,3.25
2023-01-23T19:25:17.383Z,3.13
2023-01-23T19:27:45.413Z,3.13
2023-01-23T19:30:12.924Z,2.95
2023-01-23T19:32:44.094Z,3.28
2023-01-23T19:35:14.284Z,3.22
2023-01-23T19:37:41.753Z,2.85
2023-01-23T19:40:09.760Z,3.50
2023-01-23T19:42:51.115Z,3.72
2023-01-23T19:45:23.891Z,3.30
2023-01-23T19:47:53.477Z,3.28
2023-01-23T19:50:21.442Z,3.15
2023-01-23T19:52:50.004Z,3.63
2023-01-23T19:55:30.566Z,3.35
2023-01-23T19:57:58.102Z,4.60
2023-01-23T20:00:26.046Z,3.20
2023-01-23T20:02:53.782Z,3.38
2023-01-23T20:05:21.652Z,3.75
2023-01-23T20:07:53.776Z,3.72
2023-01-23T20:10:21.050Z,3.67
2023-01-23T20:12:54.173Z,3.40
2023-01-23T20:15:23.060Z,4.07
2023-01-23T20:17:50.568Z,3.78
2023-01-23T20:20:18.146Z,3.53
2023-01-23T20:22:45.369Z,3.42
2023-01-23T20:25:13.774Z,3.63
2023-01-23T20:27:41.171Z,3.60
2023-01-23T20:30:09.837Z,3.22
2023-01-23T20:32:38.034Z,3.33
2023-01-23T20:35:05.456Z,2.97
2023-01-23T20:37:32.596Z,3.13
2023-01-23T20:39:59.817Z,3.63
2023-01-23T20:42:26.958Z,3.25
2023-01-23T20:44:54.104Z,3.38
2023-01-23T20:47:21.576Z,2.97
2023-01-23T20:49:49.465Z,3.22
2023-01-23T20:52:37.723Z,3.10
2023-01-23T20:55:04.957Z,2.70
2023-01-23T20:58:07.560Z,2.90
2023-01-23T21:00:34.663Z,3.10
2023-01-23T21:03:01.827Z,3.25
2023-01-23T21:05:29.302Z,3.53
2023-01-23T21:07:56.471Z,3.83
2023-01-23T21:10:23.612Z,3.10
2023-01-23T21:12:50.903Z,3.03
2023-01-23T21:15:18.090Z,2.85
2023-01-23T21:17:45.466Z,3.10
2023-01-23T21:20:12.680Z,2.67
2023-01-23T21:22:39.896Z,3.03
2023-01-23T21:25:07.325Z,2.85
2023-01-23T21:27:34.489Z,2.97
2023-01-23T21:30:01.889Z,2.88
2023-01-23T21:32:28.989Z,2.95
2023-01-23T21:34:56.246Z,3.00
2023-01-23T21:37:23.440Z,3.03
2023-01-23T21:39:50.698Z,2.97
2023-01-23T21:42:18.875Z,3.03
2023-01-23T21:44:45.964Z,3.17
2023-01-23T21:47:13.086Z,2.65
2023-01-23T21:49:40.177Z,3.10
2023-01-23T21:52:07.472Z,2.83
2023-01-23T21:54:34.647Z,3.40
2023-01-23T21:57:01.853Z,3.17
2023-01-23T21:59:29.036Z,3.10
2023-01-23T22:01:58.471Z,3.10
2023-01-23T22:04:25.759Z,3.05
2023-01-23T22:06:54.953Z,3.15
2023-01-23T22:09:22.718Z,3.22
2023-01-23T22:11:49.902Z,3.05
2023-01-23T22:14:18.068Z,2.97
2023-01-23T22:16:50.051Z,3.28
2023-01-23T22:19:18.923Z,3.28
2023-01-23T22:21:46.655Z,3.20
2023-01-23T22:24:14.475Z,2.85
2023-01-23T22:26:41.843Z,3.13
2023-01-23T22:29:09.121Z,3.20
2023-01-23T22:31:36.384Z,2.83
2023-01-23T22:34:03.693Z,3.30
2023-01-23T22:36:30.915Z,3.60
2023-01-23T22:38:58.038Z,3.05
2023-01-23T22:41:25.182Z,2.83
2023-01-23T22:43:55.655Z,2.75
2023-01-23T22:46:24.461Z,2.92
2023-01-23T22:48:51.844Z,3.10
2023-01-23T22:51:25.707Z,2.97
2023-01-23T22:53:53.620Z,3.08
2023-01-23T22:56:21.046Z,3.08
2023-01-23T22:58:49.018Z,3.10
2023-01-23T23:01:17.960Z,2.78
2023-01-23T23:06:13.555Z,3.45
2023-01-23T23:08:40.982Z,2.80
2023-01-23T23:11:09.542Z,3.15
2023-01-23T23:13:37.645Z,3.10
2023-01-23T23:16:08.798Z,2.88
2023-01-23T23:18:39.090Z,3.05
2023-01-23T23:21:07.273Z,2.85
2023-01-23T23:23:34.870Z,3.20
2023-01-23T23:26:01.995Z,2.97
2023-01-23T23:28:30.362Z,3.08
2023-01-23T23:30:57.690Z,2.95
2023-01-23T23:33:25.065Z,3.10
2023-01-23T23:35:52.261Z,2.92
2023-01-23T23:38:20.188Z,3.40
2023-01-23T23:40:54.578Z,3.40
2023-01-23T23:43:21.685Z,3.00
2023-01-23T23:45:55.714Z,2.83
2023-01-23T23:48:23.530Z,2.85
2023-01-23T23:50:51.133Z,3.03
2023-01-23T23:53:18.475Z,2.97
2023-01-23T23:55:45.970Z,2.95
2023-01-23T23:58:13.397Z,3.13
